sensor_id;sensor_type;location;lat;lon;timestamp;P1;durP1;ratioP1;P2;durP2;ratioP2
10659;SDS011;5378;53.206;13.316;2023-09-07T00:01:11;9.93;;;7.63;;
10659;SDS011;5378;53.206;13.316;2023-09-07T00:03:59;19.80;;;6.27;;
10659;SDS011;5378;53.206;13.316;2023-09-07T00:06:48;9.13;;;6.53;;
10659;SDS011;5378;53.206;13.316;2023-09-07T00:09:35;9.67;;;6.73;;
10659;SDS011;5378;53.206;13.316;2023-09-07T00:12:24;10.30;;;6.60;;
10659;SDS011;5378;53.206;13.316;2023-09-07T00:15:11;11.00;;;7.37;;
10659;SDS011;5378;53.206;13.316;2023-09-07T00:17:58;12.43;;;8.30;;
10659;SDS011;5378;53.206;13.316;2023-09-07T00:20:46;10.10;;;7.67;;
10659;SDS011;5378;53.206;13.316;2023-09-07T00:23:34;8.90;;;7.33;;
10659;SDS011;5378;53.206;13.316;2023-09-07T00:26:21;12.13;;;7.90;;
10659;SDS011;5378;53.206;13.316;2023-09-07T00:29:09;11.07;;;8.60;;
10659;SDS011;5378;53.206;13.316;2023-09-07T00:31:56;10.30;;;7.50;;
10659;SDS011;5378;53.206;13.316;2023-09-07T00:34:43;13.03;;;8.20;;
10659;SDS011;5378;53.206;13.316;2023-09-07T00:37:30;10.83;;;7.70;;
10659;SDS011;5378;53.206;13.316;2023-09-07T00:40:17;10.90;;;6.80;;
10659;SDS011;5378;53.206;13.316;2023-09-07T00:43:04;11.03;;;7.37;;
10659;SDS011;5378;53.206;13.316;2023-09-07T00:45:53;8.57;;;6.80;;
10659;SDS011;5378;53.206;13.316;2023-09-07T00:48:40;11.27;;;7.60;;
10659;SDS011;5378;53.206;13.316;2023-09-07T00:51:28;10.67;;;7.10;;
10659;SDS011;5378;53.206;13.316;2023-09-07T00:54:15;11.00;;;7.40;;
10659;SDS011;5378;53.206;13.316;2023-09-07T00:57:03;11.03;;;6.20;;
10659;SDS011;5378;53.206;13.316;2023-09-07T00:59:50;13.13;;;8.13;;
10659;SDS011;5378;53.206;13.316;2023-09-07T01:02:39;9.60;;;7.93;;
10659;SDS011;5378;53.206;13.316;2023-09-07T01:05:30;10.17;;;7.27;;
10659;SDS011;5378;53.206;13.316;2023-09-07T01:08:26;11.50;;;7.10;;
10659;SDS011;5378;53.206;13.316;2023-09-07T01:11:19;10.17;;;7.53;;
10659;SDS011;5378;53.206;13.316;2023-09-07T01:14:09;11.57;;;7.73;;
10659;SDS011;5378;53.206;13.316;2023-09-07T01:16:57;11.33;;;6.97;;
10659;SDS011;5378;53.206;13.316;2023-09-07T01:19:45;10.20;;;7.33;;
10659;SDS011;5378;53.206;13.316;2023-09-07T01:22:36;9.83;;;6.43;;
10659;SDS011;5378;53.206;13.316;2023-09-07T01:25:24;9.80;;;8.00;;
10659;SDS011;5378;53.206;13.316;2023-09-07T01:28:13;10.17;;;7.10;;
10659;SDS011;5378;53.206;13.316;2023-09-07T01:31:01;8.30;;;6.40;;
10659;SDS011;5378;53.206;13.316;2023-09-07T01:33:48;11.10;;;7.43;;
10659;SDS011;5378;53.206;13.316;2023-09-07T01:36:35;13.60;;;7.97;;
10659;SDS011;5378;53.206;13.316;2023-09-07T01:39:24;9.93;;;7.83;;
10659;SDS011;5378;53.206;13.316;2023-09-07T01:42:11;10.90;;;7.90;;
10659;SDS011;5378;53.206;13.316;2023-09-07T01:44:58;16.53;;;8.23;;
10659;SDS011;5378;53.206;13.316;2023-09-07T01:47:45;10.57;;;7.37;;
10659;SDS011;5378;53.206;13.316;2023-09-07T01:50:33;12.10;;;8.40;;
10659;SDS011;5378;53.206;13.316;2023-09-07T01:53:20;11.40;;;8.20;;
10659;SDS011;5378;53.206;13.316;2023-09-07T01:56:10;10.60;;;7.30;;
10659;SDS011;5378;53.206;13.316;2023-09-07T01:58:57;12.00;;;7.33;;
10659;SDS011;5378;53.206;13.316;2023-09-07T02:01:44;11.57;;;7.67;;
10659;SDS011;5378;53.206;13.316;2023-09-07T02:04:31;9.33;;;7.47;;
10659;SDS011;5378;53.206;13.316;2023-09-07T02:07:18;11.23;;;7.67;;
10659;SDS011;5378;53.206;13.316;2023-09-07T02:10:05;13.93;;;8.10;;
10659;SDS011;5378;53.206;13.316;2023-09-07T02:12:54;11.10;;;7.67;;
10659;SDS011;5378;53.206;13.316;2023-09-07T02:15:43;9.47;;;6.67;;
10659;SDS011;5378;53.206;13.316;2023-09-07T02:18:31;16.03;;;8.20;;
10659;SDS011;5378;53.206;13.316;2023-09-07T02:21:19;15.00;;;8.40;;
10659;SDS011;5378;53.206;13.316;2023-09-07T02:24:06;9.73;;;7.33;;
10659;SDS011;5378;53.206;13.316;2023-09-07T02:26:53;12.60;;;7.63;;
10659;SDS011;5378;53.206;13.316;2023-09-07T02:29:42;20.00;;;7.80;;
10659;SDS011;5378;53.206;13.316;2023-09-07T02:32:29;9.63;;;6.87;;
10659;SDS011;5378;53.206;13.316;2023-09-07T02:35:17;9.40;;;6.83;;
10659;SDS011;5378;53.206;13.316;2023-09-07T02:38:04;9.27;;;7.40;;
10659;SDS011;5378;53.206;13.316;2023-09-07T02:40:51;12.17;;;8.27;;
10659;SDS011;5378;53.206;13.316;2023-09-07T02:43:39;19.83;;;6.60;;
10659;SDS011;5378;53.206;13.316;2023-09-07T02:46:28;10.97;;;6.90;;
10659;SDS011;5378;53.206;13.316;2023-09-07T02:49:16;9.87;;;7.17;;
10659;SDS011;5378;53.206;13.316;2023-09-07T02:52:03;11.47;;;6.60;;
10659;SDS011;5378;53.206;13.316;2023-09-07T02:54:51;9.77;;;7.47;;
10659;SDS011;5378;53.206;13.316;2023-09-07T02:57:38;11.90;;;8.30;;
10659;SDS011;5378;53.206;13.316;2023-09-07T03:00:25;13.37;;;7.73;;
10659;SDS011;5378;53.206;13.316;2023-09-07T03:03:13;8.90;;;6.87;;
10659;SDS011;5378;53.206;13.316;2023-09-07T03:06:07;11.23;;;7.10;;
10659;SDS011;5378;53.206;13.316;2023-09-07T03:08:54;12.53;;;7.30;;
10659;SDS011;5378;53.206;13.316;2023-09-07T03:14:42;10.67;;;7.87;;
10659;SDS011;5378;53.206;13.316;2023-09-07T03:17:29;14.87;;;7.47;;
10659;SDS011;5378;53.206;13.316;2023-09-07T03:20:18;11.00;;;6.77;;
10659;SDS011;5378;53.206;13.316;2023-09-07T03:23:08;10.70;;;7.10;;
10659;SDS011;5378;53.206;13.316;2023-09-07T03:25:55;11.23;;;7.53;;
10659;SDS011;5378;53.206;13.316;2023-09-07T03:28:43;9.83;;;7.30;;
10659;SDS011;5378;53.206;13.316;2023-09-07T03:31:31;13.30;;;6.30;;
10659;SDS011;5378;53.206;13.316;2023-09-07T03:34:18;10.10;;;6.70;;
10659;SDS011;5378;53.206;13.316;2023-09-07T03:37:08;10.97;;;6.53;;
10659;SDS011;5378;53.206;13.316;2023-09-07T03:39:57;11.93;;;6.10;;
10659;SDS011;5378;53.206;13.316;2023-09-07T03:42:44;11.50;;;6.23;;
10659;SDS011;5378;53.206;13.316;2023-09-07T03:45:32;13.20;;;6.17;;
10659;SDS011;5378;53.206;13.316;2023-09-07T03:48:19;11.00;;;6.63;;
10659;SDS011;5378;53.206;13.316;2023-09-07T03:51:06;8.30;;;6.30;;
10659;SDS011;5378;53.206;13.316;2023-09-07T03:53:55;7.63;;;6.70;;
10659;SDS011;5378;53.206;13.316;2023-09-07T03:56:42;10.63;;;7.30;;
10659;SDS011;5378;53.206;13.316;2023-09-07T03:59:29;15.63;;;7.60;;
10659;SDS011;5378;53.206;13.316;2023-09-07T04:02:16;10.33;;;6.53;;
10659;SDS011;5378;53.206;13.316;2023-09-07T04:05:04;8.90;;;6.77;;
10659;SDS011;5378;53.206;13.316;2023-09-07T04:07:52;9.00;;;6.30;;
10659;SDS011;5378;53.206;13.316;2023-09-07T04:10:40;10.80;;;6.87;;
10659;SDS011;5378;53.206;13.316;2023-09-07T04:13:27;12.70;;;6.93;;
10659;SDS011;5378;53.206;13.316;2023-09-07T04:16:14;20.53;;;7.40;;
10659;SDS011;5378;53.206;13.316;2023-09-07T04:19:01;9.97;;;6.60;;
10659;SDS011;5378;53.206;13.316;2023-09-07T04:21:49;10.20;;;7.43;;
10659;SDS011;5378;53.206;13.316;2023-09-07T04:24:37;9.50;;;6.70;;
10659;SDS011;5378;53.206;13.316;2023-09-07T04:27:25;10.40;;;7.30;;
10659;SDS011;5378;53.206;13.316;2023-09-07T04:30:13;9.77;;;7.37;;
10659;SDS011;5378;53.206;13.316;2023-09-07T04:33:00;12.00;;;7.90;;
10659;SDS011;5378;53.206;13.316;2023-09-07T04:35:47;10.40;;;7.33;;
10659;SDS011;5378;53.206;13.316;2023-09-07T04:38:35;12.10;;;7.37;;
10659;SDS011;5378;53.206;13.316;2023-09-07T04:41:22;9.77;;;6.80;;
10659;SDS011;5378;53.206;13.316;2023-09-07T04:44:10;11.90;;;7.30;;
10659;SDS011;5378;53.206;13.316;2023-09-07T04:46:57;8.07;;;6.10;;
10659;SDS011;5378;53.206;13.316;2023-09-07T04:49:48;14.60;;;7.13;;
10659;SDS011;5378;53.206;13.316;2023-09-07T04:52:38;7.90;;;6.13;;
10659;SDS011;5378;53.206;13.316;2023-09-07T04:55:25;9.40;;;6.90;;
10659;SDS011;5378;53.206;13.316;2023-09-07T04:58:12;15.90;;;8.30;;
10659;SDS011;5378;53.206;13.316;2023-09-07T05:01:04;12.93;;;7.43;;
10659;SDS011;5378;53.206;13.316;2023-09-07T05:03:54;13.23;;;8.13;;
10659;SDS011;5378;53.206;13.316;2023-09-07T05:06:42;13.17;;;7.60;;
10659;SDS011;5378;53.206;13.316;2023-09-07T05:09:29;10.23;;;7.27;;
10659;SDS011;5378;53.206;13.316;2023-09-07T05:12:17;14.00;;;7.73;;
10659;SDS011;5378;53.206;13.316;2023-09-07T05:15:05;11.17;;;7.60;;
10659;SDS011;5378;53.206;13.316;2023-09-07T05:17:54;12.30;;;7.50;;
10659;SDS011;5378;53.206;13.316;2023-09-07T05:20:41;12.63;;;7.40;;
10659;SDS011;5378;53.206;13.316;2023-09-07T05:23:30;10.83;;;7.90;;
10659;SDS011;5378;53.206;13.316;2023-09-07T05:26:20;13.60;;;7.60;;
10659;SDS011;5378;53.206;13.316;2023-09-07T05:29:07;15.03;;;7.40;;
10659;SDS011;5378;53.206;13.316;2023-09-07T05:31:55;10.80;;;7.50;;
10659;SDS011;5378;53.206;13.316;2023-09-07T05:34:44;9.37;;;6.90;;
10659;SDS011;5378;53.206;13.316;2023-09-07T05:37:31;10.30;;;6.67;;
10659;SDS011;5378;53.206;13.316;2023-09-07T05:40:19;10.70;;;7.33;;
10659;SDS011;5378;53.206;13.316;2023-09-07T05:43:08;10.97;;;7.60;;
10659;SDS011;5378;53.206;13.316;2023-09-07T05:45:56;10.00;;;7.33;;
10659;SDS011;5378;53.206;13.316;2023-09-07T05:48:43;9.50;;;6.57;;
10659;SDS011;5378;53.206;13.316;2023-09-07T05:51:31;9.97;;;6.80;;
10659;SDS011;5378;53.206;13.316;2023-09-07T05:54:18;13.43;;;6.20;;
10659;SDS011;5378;53.206;13.316;2023-09-07T05:57:05;10.07;;;6.20;;
10659;SDS011;5378;53.206;13.316;2023-09-07T05:59:52;8.53;;;5.83;;
10659;SDS011;5378;53.206;13.316;2023-09-07T06:02:39;6.77;;;5.00;;
10659;SDS011;5378;53.206;13.316;2023-09-07T06:05:28;7.90;;;5.73;;
10659;SDS011;5378;53.206;13.316;2023-09-07T06:08:16;7.60;;;6.03;;
10659;SDS011;5378;53.206;13.316;2023-09-07T06:11:04;10.83;;;6.07;;
10659;SDS011;5378;53.206;13.316;2023-09-07T06:13:51;11.47;;;6.83;;
10659;SDS011;5378;53.206;13.316;2023-09-07T06:16:38;7.30;;;5.80;;
10659;SDS011;5378;53.206;13.316;2023-09-07T06:19:25;6.82;;;5.03;;
10659;SDS011;5378;53.206;13.316;2023-09-07T06:22:12;18.73;;;5.00;;
10659;SDS011;5378;53.206;13.316;2023-09-07T06:25:01;5.60;;;5.00;;
10659;SDS011;5378;53.206;13.316;2023-09-07T06:27:48;5.00;;;4.00;;
10659;SDS011;5378;53.206;13.316;2023-09-07T06:30:35;9.60;;;4.20;;
10659;SDS011;5378;53.206;13.316;2023-09-07T06:33:22;6.33;;;4.20;;
10659;SDS011;5378;53.206;13.316;2023-09-07T06:36:10;9.10;;;5.27;;
10659;SDS011;5378;53.206;13.316;2023-09-07T06:38:57;3.70;;;3.33;;
10659;SDS011;5378;53.206;13.316;2023-09-07T06:41:46;5.83;;;4.00;;
10659;SDS011;5378;53.206;13.316;2023-09-07T06:44:36;5.73;;;4.33;;
10659;SDS011;5378;53.206;13.316;2023-09-07T06:47:23;9.20;;;4.10;;
10659;SDS011;5378;53.206;13.316;2023-09-07T06:50:11;5.17;;;3.93;;
10659;SDS011;5378;53.206;13.316;2023-09-07T06:52:59;8.43;;;4.30;;
10659;SDS011;5378;53.206;13.316;2023-09-07T06:55:56;4.20;;;3.80;;
10659;SDS011;5378;53.206;13.316;2023-09-07T06:58:45;6.00;;;4.67;;
10659;SDS011;5378;53.206;13.316;2023-09-07T07:01:32;3.57;;;3.23;;
10659;SDS011;5378;53.206;13.316;2023-09-07T07:04:19;4.77;;;3.80;;
10659;SDS011;5378;53.206;13.316;2023-09-07T07:07:06;9.00;;;4.60;;
10659;SDS011;5378;53.206;13.316;2023-09-07T07:09:53;4.87;;;4.30;;
10659;SDS011;5378;53.206;13.316;2023-09-07T07:12:40;6.63;;;3.50;;
10659;SDS011;5378;53.206;13.316;2023-09-07T07:15:29;5.60;;;4.00;;
10659;SDS011;5378;53.206;13.316;2023-09-07T07:18:34;6.83;;;3.87;;
10659;SDS011;5378;53.206;13.316;2023-09-07T07:21:21;5.17;;;3.63;;
10659;SDS011;5378;53.206;13.316;2023-09-07T07:24:07;5.37;;;4.13;;
10659;SDS011;5378;53.206;13.316;2023-09-07T07:26:55;4.97;;;4.33;;
10659;SDS011;5378;53.206;13.316;2023-09-07T07:29:43;4.90;;;3.80;;
10659;SDS011;5378;53.206;13.316;2023-09-07T07:32:32;5.13;;;3.77;;
10659;SDS011;5378;53.206;13.316;2023-09-07T07:35:19;4.30;;;3.60;;
10659;SDS011;5378;53.206;13.316;2023-09-07T07:38:07;5.40;;;3.40;;
10659;SDS011;5378;53.206;13.316;2023-09-07T07:40:55;4.47;;;3.50;;
10659;SDS011;5378;53.206;13.316;2023-09-07T07:43:43;5.27;;;3.60;;
10659;SDS011;5378;53.206;13.316;2023-09-07T07:46:30;4.50;;;3.93;;
10659;SDS011;5378;53.206;13.316;2023-09-07T07:49:19;7.00;;;4.00;;
10659;SDS011;5378;53.206;13.316;2023-09-07T07:52:06;4.00;;;3.53;;
10659;SDS011;5378;53.206;13.316;2023-09-07T07:54:53;4.10;;;3.50;;
10659;SDS011;5378;53.206;13.316;2023-09-07T07:57:40;4.93;;;3.70;;
10659;SDS011;5378;53.206;13.316;2023-09-07T08:00:30;6.03;;;3.97;;
10659;SDS011;5378;53.206;13.316;2023-09-07T08:03:17;4.83;;;3.93;;
10659;SDS011;5378;53.206;13.316;2023-09-07T08:06:06;4.13;;;3.37;;
10659;SDS011;5378;53.206;13.316;2023-09-07T08:08:53;3.43;;;3.13;;
10659;SDS011;5378;53.206;13.316;2023-09-07T08:11:41;3.73;;;3.30;;
10659;SDS011;5378;53.206;13.316;2023-09-07T08:14:29;4.77;;;3.47;;
10659;SDS011;5378;53.206;13.316;2023-09-07T08:17:16;4.20;;;3.80;;
10659;SDS011;5378;53.206;13.316;2023-09-07T08:20:06;4.07;;;3.57;;
10659;SDS011;5378;53.206;13.316;2023-09-07T08:22:58;6.00;;;3.53;;
10659;SDS011;5378;53.206;13.316;2023-09-07T08:25:50;4.70;;;3.07;;
10659;SDS011;5378;53.206;13.316;2023-09-07T08:28:39;7.83;;;3.87;;
10659;SDS011;5378;53.206;13.316;2023-09-07T08:31:26;6.60;;;4.03;;
10659;SDS011;5378;53.206;13.316;2023-09-07T08:34:13;4.83;;;2.83;;
10659;SDS011;5378;53.206;13.316;2023-09-07T08:37:00;7.43;;;4.00;;
10659;SDS011;5378;53.206;13.316;2023-09-07T08:39:49;4.17;;;3.47;;
10659;SDS011;5378;53.206;13.316;2023-09-07T08:42:36;4.40;;;3.70;;
10659;SDS011;5378;53.206;13.316;2023-09-07T08:45:25;3.87;;;3.47;;
10659;SDS011;5378;53.206;13.316;2023-09-07T08:48:15;6.17;;;4.07;;
10659;SDS011;5378;53.206;13.316;2023-09-07T08:51:05;5.40;;;4.37;;
10659;SDS011;5378;53.206;13.316;2023-09-07T08:53:53;7.00;;;3.40;;
10659;SDS011;5378;53.206;13.316;2023-09-07T08:56:43;5.83;;;3.63;;
10659;SDS011;5378;53.206;13.316;2023-09-07T08:59:32;6.20;;;4.20;;
10659;SDS011;5378;53.206;13.316;2023-09-07T09:02:19;4.33;;;3.20;;
10659;SDS011;5378;53.206;13.316;2023-09-07T09:05:07;4.90;;;3.43;;
10659;SDS011;5378;53.206;13.316;2023-09-07T09:08:02;8.37;;;3.60;;
10659;SDS011;5378;53.206;13.316;2023-09-07T09:10:58;5.23;;;3.33;;
10659;SDS011;5378;53.206;13.316;2023-09-07T09:13:50;6.03;;;3.90;;
10659;SDS011;5378;53.206;13.316;2023-09-07T09:16:38;10.07;;;3.70;;
10659;SDS011;5378;53.206;13.316;2023-09-07T09:19:30;5.23;;;4.03;;
10659;SDS011;5378;53.206;13.316;2023-09-07T09:22:18;3.43;;;3.13;;
10659;SDS011;5378;53.206;13.316;2023-09-07T09:25:07;5.63;;;3.20;;
10659;SDS011;5378;53.206;13.316;2023-09-07T09:27:54;6.77;;;4.87;;
10659;SDS011;5378;53.206;13.316;2023-09-07T09:30:43;5.93;;;3.37;;
10659;SDS011;5378;53.206;13.316;2023-09-07T09:33:30;9.13;;;3.60;;
10659;SDS011;5378;53.206;13.316;2023-09-07T09:36:17;8.50;;;3.80;;
10659;SDS011;5378;53.206;13.316;2023-09-07T09:39:04;4.17;;;3.57;;
10659;SDS011;5378;53.206;13.316;2023-09-07T09:41:52;4.77;;;3.97;;
10659;SDS011;5378;53.206;13.316;2023-09-07T09:44:40;8.93;;;4.07;;
10659;SDS011;5378;53.206;13.316;2023-09-07T09:47:30;7.60;;;4.03;;
10659;SDS011;5378;53.206;13.316;2023-09-07T09:50:18;5.97;;;4.07;;
10659;SDS011;5378;53.206;13.316;2023-09-07T09:53:05;9.50;;;3.87;;
10659;SDS011;5378;53.206;13.316;2023-09-07T09:55:53;5.33;;;3.73;;
10659;SDS011;5378;53.206;13.316;2023-09-07T09:58:40;4.63;;;3.53;;
10659;SDS011;5378;53.206;13.316;2023-09-07T10:01:28;4.80;;;3.80;;
10659;SDS011;5378;53.206;13.316;2023-09-07T10:04:19;7.50;;;4.27;;
10659;SDS011;5378;53.206;13.316;2023-09-07T10:07:08;7.53;;;4.10;;
10659;SDS011;5378;53.206;13.316;2023-09-07T10:09:55;12.23;;;4.60;;
10659;SDS011;5378;53.206;13.316;2023-09-07T10:12:43;7.10;;;4.30;;
10659;SDS011;5378;53.206;13.316;2023-09-07T10:15:31;5.53;;;3.83;;
10659;SDS011;5378;53.206;13.316;2023-09-07T10:18:21;8.17;;;4.53;;
10659;SDS011;5378;53.206;13.316;2023-09-07T10:21:23;5.80;;;4.07;;
10659;SDS011;5378;53.206;13.316;2023-09-07T10:24:11;7.73;;;4.03;;
10659;SDS011;5378;53.206;13.316;2023-09-07T10:26:59;5.47;;;4.10;;
10659;SDS011;5378;53.206;13.316;2023-09-07T10:29:50;6.07;;;4.37;;
10659;SDS011;5378;53.206;13.316;2023-09-07T10:32:40;4.93;;;4.00;;
10659;SDS011;5378;53.206;13.316;2023-09-07T10:35:27;7.60;;;4.50;;
10659;SDS011;5378;53.206;13.316;2023-09-07T10:38:24;7.03;;;4.20;;
10659;SDS011;5378;53.206;13.316;2023-09-07T10:41:11;7.53;;;3.70;;
10659;SDS011;5378;53.206;13.316;2023-09-07T10:43:58;4.27;;;3.87;;
10659;SDS011;5378;53.206;13.316;2023-09-07T10:46:46;12.13;;;4.10;;
10659;SDS011;5378;53.206;13.316;2023-09-07T10:49:33;5.10;;;3.50;;
10659;SDS011;5378;53.206;13.316;2023-09-07T10:52:22;5.40;;;3.40;;
10659;SDS011;5378;53.206;13.316;2023-09-07T10:55:11;6.87;;;3.47;;
10659;SDS011;5378;53.206;13.316;2023-09-07T10:57:58;5.80;;;3.70;;
10659;SDS011;5378;53.206;13.316;2023-09-07T11:00:47;13.63;;;4.07;;
10659;SDS011;5378;53.206;13.316;2023-09-07T11:03:34;8.20;;;4.20;;
10659;SDS011;5378;53.206;13.316;2023-09-07T11:06:23;5.80;;;3.40;;
10659;SDS011;5378;53.206;13.316;2023-09-07T11:09:11;6.27;;;3.33;;
10659;SDS011;5378;53.206;13.316;2023-09-07T11:12:04;5.23;;;3.40;;
10659;SDS011;5378;53.206;13.316;2023-09-07T11:14:53;3.47;;;3.10;;
10659;SDS011;5378;53.206;13.316;2023-09-07T11:17:41;9.30;;;3.67;;
10659;SDS011;5378;53.206;13.316;2023-09-07T11:20:28;8.20;;;3.53;;
10659;SDS011;5378;53.206;13.316;2023-09-07T11:23:16;7.97;;;3.80;;
10659;SDS011;5378;53.206;13.316;2023-09-07T11:26:03;5.20;;;3.23;;
10659;SDS011;5378;53.206;13.316;2023-09-07T11:28:53;4.30;;;3.30;;
10659;SDS011;5378;53.206;13.316;2023-09-07T11:31:41;4.40;;;3.00;;
10659;SDS011;5378;53.206;13.316;2023-09-07T11:34:30;4.37;;;3.00;;
10659;SDS011;5378;53.206;13.316;2023-09-07T11:37:17;6.03;;;3.77;;
10659;SDS011;5378;53.206;13.316;2023-09-07T11:40:10;8.30;;;3.73;;
10659;SDS011;5378;53.206;13.316;2023-09-07T11:42:57;8.23;;;4.50;;
10659;SDS011;5378;53.206;13.316;2023-09-07T11:45:46;6.47;;;3.70;;
10659;SDS011;5378;53.206;13.316;2023-09-07T11:48:33;7.77;;;3.20;;
10659;SDS011;5378;53.206;13.316;2023-09-07T11:51:40;4.20;;;2.67;;
10659;SDS011;5378;53.206;13.316;2023-09-07T11:54:28;5.80;;;3.80;;
10659;SDS011;5378;53.206;13.316;2023-09-07T11:57:15;5.93;;;3.63;;
10659;SDS011;5378;53.206;13.316;2023-09-07T12:00:03;7.80;;;3.50;;
10659;SDS011;5378;53.206;13.316;2023-09-07T12:02:57;5.80;;;3.50;;
10659;SDS011;5378;53.206;13.316;2023-09-07T12:05:44;4.57;;;3.37;;
10659;SDS011;5378;53.206;13.316;2023-09-07T12:08:31;6.83;;;3.40;;
10659;SDS011;5378;53.206;13.316;2023-09-07T12:11:18;8.93;;;4.53;;
10659;SDS011;5378;53.206;13.316;2023-09-07T12:14:25;4.07;;;3.37;;
10659;SDS011;5378;53.206;13.316;2023-09-07T12:17:13;4.33;;;3.17;;
10659;SDS011;5378;53.206;13.316;2023-09-07T12:20:01;6.00;;;3.40;;
10659;SDS011;5378;53.206;13.316;2023-09-07T12:22:50;6.77;;;3.67;;
10659;SDS011;5378;53.206;13.316;2023-09-07T12:25:37;4.23;;;3.07;;
10659;SDS011;5378;53.206;13.316;2023-09-07T12:28:24;7.13;;;3.60;;
10659;SDS011;5378;53.206;13.316;2023-09-07T12:31:12;4.90;;;3.70;;
10659;SDS011;5378;53.206;13.316;2023-09-07T12:34:00;6.40;;;3.27;;
10659;SDS011;5378;53.206;13.316;2023-09-07T12:36:48;10.23;;;4.27;;
10659;SDS011;5378;53.206;13.316;2023-09-07T12:39:35;4.90;;;3.90;;
10659;SDS011;5378;53.206;13.316;2023-09-07T12:42:22;7.87;;;4.20;;
10659;SDS011;5378;53.206;13.316;2023-09-07T12:45:09;5.37;;;3.73;;
10659;SDS011;5378;53.206;13.316;2023-09-07T12:47:57;5.57;;;3.60;;
10659;SDS011;5378;53.206;13.316;2023-09-07T12:50:46;6.00;;;3.30;;
10659;SDS011;5378;53.206;13.316;2023-09-07T12:53:34;6.70;;;3.10;;
10659;SDS011;5378;53.206;13.316;2023-09-07T12:56:22;5.03;;;4.07;;
10659;SDS011;5378;53.206;13.316;2023-09-07T12:59:09;6.43;;;3.67;;
10659;SDS011;5378;53.206;13.316;2023-09-07T13:01:56;6.00;;;3.70;;
10659;SDS011;5378;53.206;13.316;2023-09-07T13:04:43;6.53;;;3.23;;
10659;SDS011;5378;53.206;13.316;2023-09-07T13:07:30;6.73;;;3.73;;
10659;SDS011;5378;53.206;13.316;2023-09-07T13:10:19;4.03;;;3.33;;
10659;SDS011;5378;53.206;13.316;2023-09-07T13:13:07;5.30;;;3.80;;
10659;SDS011;5378;53.206;13.316;2023-09-07T13:15:54;4.33;;;3.63;;
10659;SDS011;5378;53.206;13.316;2023-09-07T13:18:41;4.40;;;4.00;;
10659;SDS011;5378;53.206;13.316;2023-09-07T13:21:28;4.60;;;3.10;;
10659;SDS011;5378;53.206;13.316;2023-09-07T13:24:15;10.47;;;3.77;;
10659;SDS011;5378;53.206;13.316;2023-09-07T13:27:05;10.33;;;4.40;;
10659;SDS011;5378;53.206;13.316;2023-09-07T13:29:52;5.97;;;3.23;;
10659;SDS011;5378;53.206;13.316;2023-09-07T13:32:39;4.97;;;3.77;;
10659;SDS011;5378;53.206;13.316;2023-09-07T13:35:26;5.67;;;3.90;;
10659;SDS011;5378;53.206;13.316;2023-09-07T13:38:13;4.60;;;3.50;;
10659;SDS011;5378;53.206;13.316;2023-09-07T13:41:00;5.87;;;3.93;;
10659;SDS011;5378;53.206;13.316;2023-09-07T13:43:48;4.27;;;3.30;;
10659;SDS011;5378;53.206;13.316;2023-09-07T13:46:35;4.30;;;3.37;;
10659;SDS011;5378;53.206;13.316;2023-09-07T13:49:22;8.63;;;3.77;;
10659;SDS011;5378;53.206;13.316;2023-09-07T13:52:10;7.80;;;3.70;;
10659;SDS011;5378;53.206;13.316;2023-09-07T13:54:58;3.30;;;2.90;;
10659;SDS011;5378;53.206;13.316;2023-09-07T13:57:45;5.53;;;3.20;;
10659;SDS011;5378;53.206;13.316;2023-09-07T14:00:34;6.90;;;3.80;;
10659;SDS011;5378;53.206;13.316;2023-09-07T14:03:21;6.57;;;3.10;;
10659;SDS011;5378;53.206;13.316;2023-09-07T14:06:08;7.13;;;3.67;;
10659;SDS011;5378;53.206;13.316;2023-09-07T14:08:55;14.73;;;3.20;;
10659;SDS011;5378;53.206;13.316;2023-09-07T14:11:42;6.67;;;3.70;;
10659;SDS011;5378;53.206;13.316;2023-09-07T14:14:29;7.20;;;3.47;;
10659;SDS011;5378;53.206;13.316;2023-09-07T14:17:18;13.60;;;3.30;;
10659;SDS011;5378;53.206;13.316;2023-09-07T14:20:05;5.00;;;3.37;;
10659;SDS011;5378;53.206;13.316;2023-09-07T14:22:53;4.17;;;3.00;;
10659;SDS011;5378;53.206;13.316;2023-09-07T14:25:41;5.50;;;3.33;;
10659;SDS011;5378;53.206;13.316;2023-09-07T14:28:30;5.57;;;3.77;;
10659;SDS011;5378;53.206;13.316;2023-09-07T14:31:17;4.97;;;3.50;;
10659;SDS011;5378;53.206;13.316;2023-09-07T14:34:06;8.60;;;4.10;;
10659;SDS011;5378;53.206;13.316;2023-09-07T14:36:53;6.30;;;3.27;;
10659;SDS011;5378;53.206;13.316;2023-09-07T14:39:41;4.40;;;3.30;;
10659;SDS011;5378;53.206;13.316;2023-09-07T14:42:32;6.73;;;3.57;;
10659;SDS011;5378;53.206;13.316;2023-09-07T14:45:20;6.90;;;3.00;;
10659;SDS011;5378;53.206;13.316;2023-09-07T14:48:07;5.50;;;3.30;;
10659;SDS011;5378;53.206;13.316;2023-09-07T14:50:56;4.90;;;3.50;;
10659;SDS011;5378;53.206;13.316;2023-09-07T14:53:44;4.03;;;2.90;;
10659;SDS011;5378;53.206;13.316;2023-09-07T14:56:31;5.77;;;3.50;;
10659;SDS011;5378;53.206;13.316;2023-09-07T14:59:20;6.00;;;3.30;;
10659;SDS011;5378;53.206;13.316;2023-09-07T15:02:07;4.30;;;3.20;;
10659;SDS011;5378;53.206;13.316;2023-09-07T15:04:54;9.20;;;3.00;;
10659;SDS011;5378;53.206;13.316;2023-09-07T15:07:43;4.33;;;3.17;;
10659;SDS011;5378;53.206;13.316;2023-09-07T15:10:30;6.17;;;3.70;;
10659;SDS011;5378;53.206;13.316;2023-09-07T15:13:19;7.03;;;4.00;;
10659;SDS011;5378;53.206;13.316;2023-09-07T15:16:07;5.47;;;3.50;;
10659;SDS011;5378;53.206;13.316;2023-09-07T15:18:56;4.70;;;3.30;;
10659;SDS011;5378;53.206;13.316;2023-09-07T15:21:43;9.77;;;3.90;;
10659;SDS011;5378;53.206;13.316;2023-09-07T15:24:32;5.37;;;4.07;;
10659;SDS011;5378;53.206;13.316;2023-09-07T15:27:19;8.80;;;3.87;;
10659;SDS011;5378;53.206;13.316;2023-09-07T15:30:07;4.97;;;3.43;;
10659;SDS011;5378;53.206;13.316;2023-09-07T15:32:54;6.27;;;3.33;;
10659;SDS011;5378;53.206;13.316;2023-09-07T15:35:42;5.40;;;3.50;;
10659;SDS011;5378;53.206;13.316;2023-09-07T15:38:29;5.30;;;3.60;;
10659;SDS011;5378;53.206;13.316;2023-09-07T15:41:17;5.07;;;3.80;;
10659;SDS011;5378;53.206;13.316;2023-09-07T15:44:04;5.43;;;4.03;;
10659;SDS011;5378;53.206;13.316;2023-09-07T15:46:51;4.33;;;2.97;;
10659;SDS011;5378;53.206;13.316;2023-09-07T15:49:39;7.03;;;4.13;;
10659;SDS011;5378;53.206;13.316;2023-09-07T15:52:28;4.73;;;3.40;;
10659;SDS011;5378;53.206;13.316;2023-09-07T15:55:15;5.67;;;4.10;;
10659;SDS011;5378;53.206;13.316;2023-09-07T15:58:04;5.50;;;3.50;;
10659;SDS011;5378;53.206;13.316;2023-09-07T16:00:52;6.40;;;3.70;;
10659;SDS011;5378;53.206;13.316;2023-09-07T16:03:39;7.53;;;4.00;;
10659;SDS011;5378;53.206;13.316;2023-09-07T16:06:26;7.63;;;3.67;;
10659;SDS011;5378;53.206;13.316;2023-09-07T16:09:14;8.00;;;3.80;;
10659;SDS011;5378;53.206;13.316;2023-09-07T16:12:01;4.73;;;3.33;;
10659;SDS011;5378;53.206;13.316;2023-09-07T16:14:50;4.33;;;3.20;;
10659;SDS011;5378;53.206;13.316;2023-09-07T16:17:37;7.33;;;4.17;;
10659;SDS011;5378;53.206;13.316;2023-09-07T16:20:24;4.60;;;3.23;;
10659;SDS011;5378;53.206;13.316;2023-09-07T16:23:11;5.90;;;4.70;;
10659;SDS011;5378;53.206;13.316;2023-09-07T16:25:58;5.37;;;3.70;;
10659;SDS011;5378;53.206;13.316;2023-09-07T16:28:46;5.50;;;3.87;;
10659;SDS011;5378;53.206;13.316;2023-09-07T16:31:35;4.67;;;3.67;;
10659;SDS011;5378;53.206;13.316;2023-09-07T16:34:23;4.50;;;3.63;;
10659;SDS011;5378;53.206;13.316;2023-09-07T16:37:12;3.63;;;3.33;;
10659;SDS011;5378;53.206;13.316;2023-09-07T16:39:59;4.17;;;3.33;;
10659;SDS011;5378;53.206;13.316;2023-09-07T16:42:47;5.60;;;3.47;;
10659;SDS011;5378;53.206;13.316;2023-09-07T16:48:31;6.87;;;4.43;;
10659;SDS011;5378;53.206;13.316;2023-09-07T16:51:18;9.80;;;3.50;;
10659;SDS011;5378;53.206;13.316;2023-09-07T16:54:07;6.43;;;4.27;;